Anchorage, AK

12:57 AM AKST on February 27, 2017 (GMT -0900)
Government Hill | | Change Station
Active Advisory: Dense Fog Advisory

Elev 94 ft 61.23 °N, 149.89 °W | Updated 13 minutes ago

Overcast
Overcast
24.6 °F
Feels Like 25 °F
N
1.0
Wind Variable Wind from East
Gusts 2.0 mph

Today
High -- | Low -- °F
--% Chance of Precip.
Yesterday
High -- | Low -- °F
Precip. -- in
Pressure 30.13 in
Visibility 1.0 miles
Clouds Overcast 200 ft
Windchill 25 °F
Dew Point 24 °F
Humidity 96%
Rainfall 0.00 in
Snow Depth Not available.
8:04 AM 6:20 PM
New Moon, 1% visible
METAR PAMR 270953Z 36003KT 1SM BR OVC002 M05/M06 A3012 RMK AO2 SLP203 T10501056 $
Pressure 30.13 in
Visibility 1.0 miles
Clouds Overcast 200 ft
Windchill 25 °F
Dew Point 24 °F
Humidity 96%
Rainfall 0.00 in
Snow Depth Not available.
8:04 AM 6:20 PM
New Moon, 1% visible
METAR PAMR 270953Z 36003KT 1SM BR OVC002 M05/M06 A3012 RMK AO2 SLP203 T10501056 $

Get Your Daily Forecast Email!

Thanks for signing up!

Be on the lookout for a verification email in your inbox.

You'll start receiving the daily forecast at 8 AM.

×

10-Day Weather Forecast

Almanac

Astronomy

Feb. 27, 2017 Rise Set
Actual Time
Civil Twilight
Nautical Twilight
Astronomical Twilight
Moon
Length of Visible Light
Length of Day
Tomorrow will be .
, % of the Moon is Illuminated

Today's Extremes

State Highs State Lows

Community

WunderPhotos

Upload Photos

1,962,540 photos uploaded!

WunderBlog® & News

Nearby

Air Quality

  Air Quality AQ Index Pollutant
Not available.

Snow Depth

Station Depth Elevation

Earthquake Activity

City Distance Mag. Time & Date
Minimum magnitude displayed is 2.5.

Coastal Water Temperatures

Place Temperature

Stations

Nearby Weather Stations

Station Location Temp. Windchill Dew Point Humidity Wind Precip. Elev Updated Type
                   

Watches & Warnings

Dense Fog Advisory
Issued: 10:50 PM AKST Feb. 26, 2017 – National Weather Service

... Dense fog advisory in effect until 5 am akst Monday...

The National Weather Service in Anchorage has issued a dense fog
advisory... which is in effect until 5 am akst Monday.

* Visibility... a quarter mile or less at times.

* Impacts... very low visibilities can cause very difficult
driving conditions.

Precautionary/preparedness actions...

A dense fog advisory means visibilities will frequently be
reduced to less than one quarter mile. If driving, slow down, use
your headlights, and leave plenty of distance ahead of you.